Time;durP1;ratioP1;P1;durP2;ratioP2;P2;SDS_P1;SDS_P2;PMS_P1;PMS_P2;Temp;Humidity;BMP_temperature;BMP_pressure;BME280_temperature;BME280_humidity;BME280_pressure;Samples;Min_cycle;Max_cycle;Signal;HPM_P1;HPM_P2
2024/03/25 00:00:10;;;;;;;3.27;3.07;;;5.90;99.90;;;;;;5089043;28;20203;-71
2024/03/25 00:02:37;;;;;;;3.17;2.97;;;5.90;99.90;;;;;;5089139;28;20279;-71
2024/03/25 00:05:05;;;;;;;3.73;3.00;;;5.90;99.90;;;;;;5088104;28;20199;-71
2024/03/25 00:07:32;;;;;;;3.13;2.83;;;5.90;99.90;;;;;;5088897;28;20209;-70
2024/03/25 00:09:59;;;;;;;3.13;2.90;;;5.90;99.90;;;;;;5088126;28;20199;-71
2024/03/25 00:12:27;;;;;;;3.40;2.93;;;5.90;99.90;;;;;;5088631;28;20215;-71
2024/03/25 00:14:53;;;;;;;2.97;2.70;;;5.90;99.90;;;;;;5088361;28;20321;-72
2024/03/25 00:17:20;;;;;;;3.07;2.87;;;5.90;99.90;;;;;;5087944;28;20680;-71
2024/03/25 00:19:50;;;;;;;3.30;2.70;;;5.90;99.90;;;;;;5088455;28;20207;-71
2024/03/25 00:22:17;;;;;;;3.20;3.00;;;5.90;99.90;;;;;;5088273;28;20207;-71
2024/03/25 00:24:43;;;;;;;3.47;3.17;;;6.00;99.90;;;;;;5087851;28;20317;-71
2024/03/25 00:27:10;;;;;;;3.30;3.00;;;5.90;99.90;;;;;;5087700;28;20780;-71
2024/03/25 00:29:37;;;;;;;3.60;3.00;;;5.90;99.90;;;;;;5087120;28;20233;-71
2024/03/25 00:32:05;;;;;;;3.80;3.37;;;5.90;99.90;;;;;;5087626;28;20207;-71
2024/03/25 00:34:32;;;;;;;3.90;3.60;;;5.90;99.90;;;;;;5088080;28;20622;-71
2024/03/25 00:36:59;;;;;;;3.87;3.60;;;5.90;99.90;;;;;;5088132;28;20276;-70
2024/03/25 00:39:25;;;;;;;3.33;3.13;;;6.00;99.90;;;;;;5087451;28;20669;-70
2024/03/25 00:41:52;;;;;;;4.07;3.77;;;6.00;99.90;;;;;;5087965;28;20405;-71
2024/03/25 00:44:19;;;;;;;4.30;3.77;;;6.00;99.90;;;;;;5087872;28;20289;-70
2024/03/25 00:46:47;;;;;;;3.83;3.47;;;6.00;99.90;;;;;;5087551;28;20251;-71
2024/03/25 00:49:13;;;;;;;4.10;3.80;;;6.00;99.90;;;;;;5087487;28;20297;-71
2024/03/25 00:51:41;;;;;;;3.90;3.60;;;6.00;99.90;;;;;;5088088;28;20234;-71
2024/03/25 00:54:07;;;;;;;3.97;3.67;;;6.00;99.90;;;;;;5087565;28;20225;-71
2024/03/25 00:56:34;;;;;;;3.80;3.60;;;6.00;99.90;;;;;;5067768;28;20203;-72
2024/03/25 00:59:02;;;;;;;4.07;3.77;;;6.00;99.90;;;;;;5067210;28;20290;-72
2024/03/25 01:01:29;;;;;;;3.77;3.53;;;6.00;99.90;;;;;;5085314;28;20571;-72
2024/03/25 01:03:57;;;;;;;4.47;3.90;;;6.00;99.90;;;;;;5078361;28;20682;-71
2024/03/25 01:06:24;;;;;;;3.93;3.63;;;6.00;99.90;;;;;;5067525;28;20207;-71
2024/03/25 01:08:50;;;;;;;5.27;3.80;;;6.00;99.90;;;;;;5067511;28;20306;-71
2024/03/25 01:11:17;;;;;;;3.40;3.20;;;6.00;99.90;;;;;;5072250;28;20203;-71
2024/03/25 01:13:43;;;;;;;3.70;3.40;;;6.00;99.90;;;;;;5066857;28;20909;-71
2024/03/25 01:16:10;;;;;;;4.37;3.17;;;6.00;99.90;;;;;;5067153;28;20295;-71
2024/03/25 01:18:36;;;;;;;3.70;3.37;;;6.00;99.90;;;;;;5074253;28;20298;-72
2024/03/25 01:21:04;;;;;;;3.77;3.47;;;5.90;99.90;;;;;;5087110;28;20207;-71
2024/03/25 01:23:30;;;;;;;3.00;2.80;;;5.90;99.90;;;;;;5087197;28;20313;-72
2024/03/25 01:25:57;;;;;;;2.97;2.73;;;5.90;99.90;;;;;;5086627;28;20286;-71
2024/03/25 01:28:23;;;;;;;3.00;2.80;;;5.90;99.90;;;;;;5086746;28;20293;-72
2024/03/25 01:30:50;;;;;;;2.83;2.43;;;5.80;99.90;;;;;;5087214;28;20290;-72
2024/03/25 01:33:16;;;;;;;2.93;2.50;;;5.80;99.90;;;;;;5086834;28;20321;-72
2024/03/25 01:35:43;;;;;;;2.07;1.60;;;5.80;99.90;;;;;;5086810;28;20636;-72
2024/03/25 01:38:10;;;;;;;2.30;1.43;;;5.70;99.90;;;;;;5087081;28;20627;-72
2024/03/25 01:40:37;;;;;;;1.70;1.60;;;5.60;99.90;;;;;;5086607;28;20225;-72
2024/03/25 01:43:03;;;;;;;4.23;1.80;;;5.60;99.90;;;;;;5086922;28;20256;-72
2024/03/25 01:45:31;;;;;;;1.73;1.63;;;5.60;99.90;;;;;;5087189;28;20215;-72
2024/03/25 01:48:00;;;;;;;1.83;1.73;;;5.60;99.90;;;;;;5086539;28;20661;-72
2024/03/25 01:50:26;;;;;;;2.13;2.00;;;5.70;99.90;;;;;;5086748;28;20334;-72
2024/03/25 01:52:54;;;;;;;3.57;2.50;;;5.60;99.90;;;;;;5087069;28;20205;-72
2024/03/25 01:55:24;;;;;;;2.20;2.10;;;5.70;99.90;;;;;;5086373;28;20199;-72
2024/03/25 01:57:52;;;;;;;3.60;2.57;;;5.70;99.90;;;;;;5086908;28;20219;-72
2024/03/25 02:00:18;;;;;;;3.47;2.87;;;5.70;99.90;;;;;;5086872;28;20203;-71
2024/03/25 02:02:46;;;;;;;2.80;2.60;;;5.70;99.90;;;;;;5086808;28;20203;-72
2024/03/25 02:05:13;;;;;;;3.03;2.50;;;5.70;99.90;;;;;;5067474;28;20207;-72
2024/03/25 02:07:41;;;;;;;3.37;2.70;;;5.70;99.90;;;;;;5071708;28;20245;-72
2024/03/25 02:10:09;;;;;;;4.20;2.97;;;5.60;99.90;;;;;;5090266;28;20203;-72
2024/03/25 02:12:38;;;;;;;4.37;3.23;;;5.70;99.90;;;;;;5087289;28;20577;-72
2024/03/25 02:15:05;;;;;;;5.90;3.70;;;5.70;99.90;;;;;;5090383;28;20771;-72
2024/03/25 02:17:32;;;;;;;3.30;3.00;;;5.70;99.90;;;;;;5091173;28;20203;-72
2024/03/25 02:19:58;;;;;;;3.80;3.47;;;5.70;99.90;;;;;;5090975;28;20289;-71
2024/03/25 02:22:25;;;;;;;3.40;3.10;;;5.60;99.90;;;;;;5090241;28;20326;-71
2024/03/25 02:24:52;;;;;;;4.40;3.40;;;5.70;99.90;;;;;;5090999;28;20202;-71
2024/03/25 02:27:21;;;;;;;5.53;3.43;;;5.70;99.90;;;;;;5090301;28;20703;-71
2024/03/25 02:29:47;;;;;;;4.07;3.40;;;5.70;99.90;;;;;;5090989;28;20203;-71
2024/03/25 02:32:13;;;;;;;4.47;3.03;;;5.70;99.90;;;;;;5090819;28;20293;-71
2024/03/25 02:34:43;;;;;;;4.47;3.33;;;5.70;99.90;;;;;;5090703;28;20325;-71
2024/03/25 02:37:10;;;;;;;5.13;3.40;;;5.70;99.90;;;;;;5090580;28;20294;-72
2024/03/25 02:39:36;;;;;;;4.00;3.20;;;5.70;99.90;;;;;;5090230;28;20244;-71
2024/03/25 02:42:04;;;;;;;3.30;3.00;;;5.70;99.90;;;;;;5089911;28;20195;-71
2024/03/25 02:44:31;;;;;;;3.50;3.10;;;5.70;99.90;;;;;;5090238;28;20226;-71
2024/03/25 02:46:59;;;;;;;5.10;3.20;;;5.70;99.90;;;;;;5089993;28;20285;-71
2024/03/25 02:49:25;;;;;;;4.23;3.40;;;5.70;99.90;;;;;;5090301;28;20706;-71
2024/03/25 02:51:52;;;;;;;3.63;2.37;;;5.70;99.90;;;;;;5090280;28;20669;-72
2024/03/25 02:54:19;;;;;;;2.20;2.10;;;5.70;99.90;;;;;;5090214;28;20258;-72
2024/03/25 02:56:46;;;;;;;2.53;2.30;;;5.70;99.90;;;;;;5089700;28;20531;-72
2024/03/25 02:59:12;;;;;;;4.20;2.77;;;5.70;99.90;;;;;;5090594;28;20245;-72
2024/03/25 03:01:40;;;;;;;3.50;2.13;;;5.70;99.90;;;;;;5090201;28;20207;-73
2024/03/25 03:04:06;;;;;;;2.40;2.20;;;5.60;99.90;;;;;;5082414;28;20215;-73
2024/03/25 03:06:32;;;;;;;2.57;2.37;;;5.70;99.90;;;;;;5089589;28;20256;-73
2024/03/25 03:08:58;;;;;;;3.30;2.00;;;5.60;99.90;;;;;;5089845;28;20665;-72
2024/03/25 03:11:25;;;;;;;2.77;2.10;;;5.60;99.90;;;;;;5089084;28;20217;-72
2024/03/25 03:13:51;;;;;;;2.20;1.80;;;5.60;99.90;;;;;;5088510;28;20309;-73
2024/03/25 03:16:18;;;;;;;3.77;2.10;;;5.60;99.90;;;;;;5087543;28;20789;-71
2024/03/25 03:18:45;;;;;;;2.37;2.07;;;5.60;99.90;;;;;;5088706;28;20226;-70
2024/03/25 03:21:12;;;;;;;2.27;2.13;;;5.60;99.90;;;;;;5089439;28;20302;-71
2024/03/25 03:23:38;;;;;;;3.00;2.20;;;5.60;99.90;;;;;;5089308;28;20229;-71
2024/03/25 03:26:05;;;;;;;2.30;2.10;;;5.60;99.90;;;;;;5086472;28;20199;-71
2024/03/25 03:28:31;;;;;;;3.00;2.10;;;5.60;99.90;;;;;;5088532;28;20214;-71
2024/03/25 03:30:58;;;;;;;3.23;2.23;;;5.60;99.90;;;;;;5087423;28;20203;-71
2024/03/25 03:33:23;;;;;;;2.83;1.90;;;5.70;99.90;;;;;;5081463;28;20644;-71
2024/03/25 03:35:53;;;;;;;2.53;2.33;;;5.60;99.90;;;;;;5087479;28;20214;-71
2024/03/25 03:38:19;;;;;;;3.73;2.00;;;5.60;99.90;;;;;;5087047;28;20752;-71
2024/03/25 03:40:56;;;;;;;2.47;2.10;;;5.60;99.90;;;;;;5086691;28;20203;-71
2024/03/25 03:43:22;;;;;;;2.60;2.40;;;5.60;99.90;;;;;;5087110;28;20205;-71
2024/03/25 03:45:48;;;;;;;2.20;2.10;;;5.60;99.90;;;;;;5082089;28;20199;-71
2024/03/25 03:48:14;;;;;;;1.63;1.53;;;5.60;99.90;;;;;;5066720;28;20800;-71
2024/03/25 03:50:42;;;;;;;2.20;2.00;;;5.60;99.90;;;;;;5067555;28;20207;-71
2024/03/25 03:53:09;;;;;;;2.87;2.10;;;5.70;99.90;;;;;;5066389;28;20837;-71
2024/03/25 03:55:37;;;;;;;2.20;2.00;;;5.60;99.90;;;;;;5067205;28;20215;-71
2024/03/25 03:58:03;;;;;;;2.33;2.13;;;5.60;99.90;;;;;;5086130;28;20294;-71
2024/03/25 04:00:30;;;;;;;2.20;1.97;;;5.60;99.90;;;;;;5082657;28;20289;-71
2024/03/25 04:02:56;;;;;;;2.20;2.10;;;5.60;99.90;;;;;;5087942;28;20291;-71
2024/03/25 04:05:23;;;;;;;3.17;2.07;;;5.60;99.90;;;;;;5087983;28;20294;-71
2024/03/25 04:07:49;;;;;;;2.50;2.30;;;5.60;99.90;;;;;;5087146;28;20203;-71
2024/03/25 04:10:17;;;;;;;3.13;2.27;;;5.60;99.90;;;;;;5087644;28;20962;-71
2024/03/25 04:12:43;;;;;;;2.53;2.33;;;5.60;99.90;;;;;;5088670;28;20242;-71
2024/03/25 04:15:17;;;;;;;2.20;2.07;;;5.60;99.90;;;;;;5087966;28;20277;-71
2024/03/25 04:17:44;;;;;;;2.13;1.90;;;5.60;99.90;;;;;;5088745;28;20241;-71
2024/03/25 04:20:12;;;;;;;2.13;2.03;;;5.60;99.90;;;;;;5088100;28;20264;-71
2024/03/25 04:22:41;;;;;;;3.03;2.27;;;5.70;99.90;;;;;;5088249;28;20314;-71
2024/03/25 04:25:10;;;;;;;2.60;2.40;;;5.60;99.90;;;;;;5087942;28;20265;-71
2024/03/25 04:27:38;;;;;;;3.77;2.47;;;5.70;99.90;;;;;;5088199;28;20294;-71
2024/03/25 04:30:06;;;;;;;3.17;2.70;;;5.70;99.90;;;;;;5087796;28;20240;-70
2024/03/25 04:32:32;;;;;;;2.33;2.10;;;5.70;99.90;;;;;;5088135;28;20214;-71
2024/03/25 04:34:59;;;;;;;6.43;2.50;;;5.70;99.90;;;;;;5087988;28;20238;-71
